チェンナイ の空港の天気 - METARとTAF

チェンナイ国際空港 ( VOMM / MAA ) - インド チェンナイ
飛行場実況気象(Metar)
観測時間04/26 16:30 IST (04/26 11:00 UTC)
風向・風速南東 6m/s
視程7000m
天気現象
少しの雲 雲底高度 610m
気温34℃
湿度63%
気圧1004hPa
METARVOMM 261100Z 13012KT 7000 FEW020 34/26 Q1004 NOSIG
過去の天気等 Google飛行場航空写真 Wunderground天気予報

過去48時間のMETAR

飛行場予報(TAF)
発表時間: 4/26 10:30 IST (4/26 05:00 UTC)
予報対象時間: 26日11時 IST ~ 27日17時 IST
風向・風速南 5m/s
視程6,000m
少しの雲 雲底高度 610m
26日13時 IST ~ 26日14時 IST に徐々に
風向・風速東南東 5m/s
27日2時 IST ~ 27日3時 IST に徐々に
風向・風速南南西 5m/s
27日13時 IST ~ 27日14時 IST に徐々に
風向・風速東南東 5m/s
TAF COR VOMM 260500Z 2606/2712 18010KT 6000 FEW020
BECMG 2608/2609 12010KT
BECMG 2621/2622 21010KT
BECMG 2708/2709 12010KT